createdAt,value
2023-05-13T00:02:02.097Z,12.56
2023-05-13T00:04:29.815Z,12.54
2023-05-13T00:06:58.157Z,12.51
2023-05-13T00:09:25.791Z,12.49
2023-05-13T00:11:54.888Z,12.46
2023-05-13T00:14:24.261Z,12.45
2023-05-13T00:16:52.136Z,12.41
2023-05-13T00:19:19.822Z,12.38
2023-05-13T00:21:47.468Z,12.35
2023-05-13T00:24:15.035Z,12.32
2023-05-13T00:26:43.601Z,12.28
2023-05-13T00:29:12.501Z,12.25
2023-05-13T00:31:40.179Z,12.23
2023-05-13T00:34:07.812Z,12.20
2023-05-13T00:36:35.389Z,12.18
2023-05-13T00:39:03.669Z,12.16
2023-05-13T00:41:31.312Z,12.12
2023-05-13T00:43:59.108Z,12.09
2023-05-13T00:46:32.577Z,12.07
2023-05-13T00:49:01.963Z,12.04
2023-05-13T00:51:29.629Z,12.00
2023-05-13T00:53:59.503Z,11.98
2023-05-13T00:56:28.043Z,11.97
2023-05-13T00:58:55.569Z,11.95
2023-05-13T01:01:39.479Z,11.93
2023-05-13T01:04:15.657Z,11.90
2023-05-13T01:06:53.235Z,11.89
2023-05-13T01:09:29.858Z,11.86
2023-05-13T01:12:03.231Z,11.83
2023-05-13T01:14:38.151Z,11.83
2023-05-13T01:22:03.143Z,11.77
2023-05-13T01:24:56.485Z,11.76
2023-05-13T01:27:24.416Z,11.73
2023-05-13T01:30:17.792Z,11.73
2023-05-13T01:32:48.025Z,11.72
2023-05-13T01:35:18.096Z,11.71
2023-05-13T01:37:51.184Z,11.69
2023-05-13T01:40:44.166Z,11.68
2023-05-13T01:43:13.172Z,11.67
2023-05-13T01:45:40.963Z,11.66
2023-05-13T01:48:09.163Z,11.65
2023-05-13T01:50:46.183Z,11.63
2023-05-13T01:53:15.312Z,11.61
2023-05-13T01:55:43.599Z,11.60
2023-05-13T01:58:11.625Z,11.57
2023-05-13T02:00:40.352Z,11.56
2023-05-13T02:03:08.797Z,11.53
2023-05-13T02:05:37.200Z,11.50
2023-05-13T02:08:08.932Z,11.49
2023-05-13T02:10:40.765Z,11.47
2023-05-13T02:13:08.717Z,11.45
2023-05-13T02:15:37.194Z,11.43
2023-05-13T02:18:06.672Z,11.42
2023-05-13T02:20:34.359Z,11.40
2023-05-13T02:23:01.956Z,11.37
2023-05-13T02:25:31.175Z,11.37
2023-05-13T02:28:01.548Z,11.35
2023-05-13T02:30:30.745Z,11.33
2023-05-13T02:33:01.268Z,11.32
2023-05-13T02:35:30.005Z,11.30
2023-05-13T02:37:59.711Z,11.27
2023-05-13T02:40:29.595Z,11.25
2023-05-13T02:42:59.342Z,11.22
2023-05-13T02:45:45.421Z,11.18
2023-05-13T02:48:13.766Z,11.16
2023-05-13T02:50:44.169Z,11.11
2023-05-13T02:53:13.282Z,11.09
2023-05-13T02:55:47.183Z,11.07
2023-05-13T02:58:15.306Z,11.06
2023-05-13T03:00:47.193Z,11.04
2023-05-13T03:03:18.355Z,11.04
2023-05-13T03:05:46.246Z,11.00
2023-05-13T03:08:13.857Z,10.95
2023-05-13T03:10:41.514Z,10.93
2023-05-13T03:13:09.697Z,10.89
2023-05-13T03:15:37.632Z,10.85
2023-05-13T03:18:06.338Z,10.82
2023-05-13T03:20:35.273Z,10.79
2023-05-13T03:23:04.648Z,10.76
2023-05-13T03:25:33.693Z,10.72
2023-05-13T03:28:01.578Z,10.68
2023-05-13T03:30:57.040Z,10.66
2023-05-13T03:33:25.289Z,10.61
2023-05-13T03:35:55.917Z,10.56
2023-05-13T03:38:29.276Z,10.55
2023-05-13T03:40:57.155Z,10.52
2023-05-13T03:43:25.444Z,10.50
2023-05-13T03:45:58.279Z,10.47
2023-05-13T03:48:26.802Z,10.46
2023-05-13T03:50:58.450Z,10.44
2023-05-13T03:53:27.173Z,10.43
2023-05-13T03:55:56.646Z,10.42
2023-05-13T03:58:24.316Z,10.41
2023-05-13T04:00:52.597Z,10.39
2023-05-13T04:03:20.511Z,10.38
2023-05-13T04:05:49.800Z,10.37
2023-05-13T04:08:24.186Z,10.36
2023-05-13T04:10:51.776Z,10.35
2023-05-13T04:13:20.196Z,10.34
2023-05-13T04:15:49.257Z,10.33
2023-05-13T04:18:18.562Z,10.33
2023-05-13T04:20:47.275Z,10.33
2023-05-13T04:23:15.354Z,10.33
2023-05-13T04:25:51.547Z,10.34
2023-05-13T04:28:20.188Z,10.35
2023-05-13T04:30:49.510Z,10.37
2023-05-13T04:33:17.353Z,10.38
2023-05-13T04:35:48.258Z,10.38
2023-05-13T04:38:19.278Z,10.36
2023-05-13T04:40:48.732Z,10.36
2023-05-13T04:43:22.546Z,10.36
2023-05-13T04:45:58.184Z,10.37
2023-05-13T04:48:28.117Z,10.36
2023-05-13T04:50:59.187Z,10.38
2023-05-13T04:53:28.308Z,10.41
2023-05-13T04:56:01.181Z,10.42
2023-05-13T04:58:30.503Z,10.44
2023-05-13T05:00:58.309Z,10.46
2023-05-13T05:03:30.253Z,10.51
2023-05-13T05:05:59.124Z,10.53
2023-05-13T05:08:29.188Z,10.55
2023-05-13T05:10:58.577Z,10.56
2023-05-13T05:13:27.532Z,10.59
2023-05-13T05:15:55.171Z,10.62
2023-05-13T05:18:22.933Z,10.67
2023-05-13T05:20:52.099Z,10.70
2023-05-13T05:23:22.571Z,10.75
2023-05-13T05:25:58.085Z,10.80
2023-05-13T05:28:40.032Z,10.85
2023-05-13T05:31:08.402Z,10.91
2023-05-13T05:33:38.174Z,10.96
2023-05-13T05:36:32.212Z,11.03
2023-05-13T05:39:05.294Z,11.08
2023-05-13T05:41:36.478Z,11.14
2023-05-13T05:44:06.118Z,11.19
2023-05-13T05:46:36.008Z,11.24
2023-05-13T05:49:04.103Z,11.32
2023-05-13T05:51:35.402Z,11.38
2023-05-13T05:54:04.617Z,11.44
2023-05-13T05:56:32.440Z,11.51
2023-05-13T05:59:01.189Z,11.57
2023-05-13T06:01:33.647Z,11.65
2023-05-13T06:04:02.254Z,11.72
2023-05-13T06:06:32.243Z,11.82
2023-05-13T06:09:01.736Z,11.91
2023-05-13T06:11:30.308Z,11.99
2023-05-13T06:14:00.200Z,12.08
2023-05-13T06:16:33.443Z,12.18
2023-05-13T06:19:01.342Z,12.27
2023-05-13T06:21:29.119Z,12.36
2023-05-13T06:24:21.015Z,12.41
2023-05-13T06:26:48.699Z,12.51
2023-05-13T06:29:16.908Z,12.63
2023-05-13T06:31:45.925Z,12.75
2023-05-13T06:34:17.234Z,12.85
2023-05-13T06:36:45.828Z,12.96
2023-05-13T06:39:14.653Z,13.10
2023-05-13T06:41:46.208Z,13.27
2023-05-13T06:44:16.571Z,13.42
2023-05-13T06:46:52.367Z,13.57
2023-05-13T06:49:25.080Z,13.74
2023-05-13T06:51:54.580Z,13.89
2023-05-13T06:54:22.171Z,14.03
2023-05-13T06:56:52.211Z,14.14
2023-05-13T06:59:22.343Z,14.28
2023-05-13T07:01:51.394Z,14.44
2023-05-13T07:04:19.124Z,14.61
2023-05-13T07:06:49.377Z,14.78
2023-05-13T07:09:18.104Z,14.97
2023-05-13T07:11:46.190Z,15.01
2023-05-13T07:14:13.870Z,15.12
2023-05-13T07:16:42.191Z,15.21
2023-05-13T07:19:11.226Z,15.32
2023-05-13T07:21:40.185Z,15.51
2023-05-13T07:24:09.411Z,15.66
2023-05-13T07:26:37.105Z,15.82
2023-05-13T07:29:06.083Z,16.00
2023-05-13T07:31:36.183Z,16.17
2023-05-13T07:34:03.812Z,16.37
2023-05-13T07:36:32.717Z,16.51
2023-05-13T07:39:02.158Z,16.66
2023-05-13T07:44:22.774Z,16.85
2023-05-13T07:46:53.290Z,16.94
2023-05-13T07:49:21.344Z,17.12
2023-05-13T07:51:52.680Z,17.29
2023-05-13T07:54:20.781Z,17.47
2023-05-13T07:56:50.184Z,17.63
2023-05-13T07:59:18.204Z,17.70
2023-05-13T08:01:46.377Z,17.80
2023-05-13T08:04:14.100Z,17.91
2023-05-13T08:06:42.212Z,18.01
2023-05-13T08:09:12.203Z,18.12
2023-05-13T08:11:41.756Z,18.19
2023-05-13T08:14:09.399Z,18.26
2023-05-13T08:16:38.828Z,18.35
2023-05-13T08:19:07.293Z,18.46
2023-05-13T08:21:35.607Z,18.56
2023-05-13T08:24:03.861Z,18.67
2023-05-13T08:26:34.216Z,18.81
2023-05-13T08:29:02.690Z,18.90
2023-05-13T08:31:31.958Z,18.95
2023-05-13T08:34:00.317Z,19.00
2023-05-13T08:36:29.585Z,19.05
2023-05-13T08:39:02.210Z,19.14
2023-05-13T08:41:31.614Z,19.25
2023-05-13T08:44:01.595Z,19.34
2023-05-13T08:46:33.413Z,19.47
2023-05-13T08:49:03.694Z,19.60
2023-05-13T08:51:56.201Z,19.73
2023-05-13T08:54:26.857Z,19.84
2023-05-13T08:56:54.544Z,19.96
2023-05-13T08:59:24.053Z,20.04
2023-05-13T09:01:53.632Z,20.14
2023-05-13T09:04:22.307Z,20.25
2023-05-13T09:06:50.621Z,20.38
2023-05-13T09:09:19.061Z,20.44
2023-05-13T09:11:49.202Z,20.53
2023-05-13T09:14:20.063Z,20.64
2023-05-13T09:16:51.084Z,20.72
2023-05-13T09:19:19.824Z,20.84
2023-05-13T09:21:47.533Z,20.86
2023-05-13T09:24:20.218Z,20.92
2023-05-13T09:26:48.771Z,21.03
2023-05-13T09:29:24.282Z,21.12
2023-05-13T09:31:54.698Z,21.18
2023-05-13T09:34:30.680Z,21.31
2023-05-13T09:37:04.339Z,21.41
2023-05-13T09:39:58.363Z,21.52
2023-05-13T09:42:26.011Z,21.62
2023-05-13T09:44:53.642Z,21.67
2023-05-13T09:47:25.631Z,21.74
2023-05-13T09:49:56.675Z,21.83
2023-05-13T09:52:25.350Z,21.94
2023-05-13T09:54:53.186Z,22.00
2023-05-13T09:57:21.820Z,22.02
2023-05-13T09:59:49.450Z,22.08
2023-05-13T10:05:15.275Z,22.13
2023-05-13T10:07:43.065Z,22.20
2023-05-13T10:10:12.238Z,22.31
2023-05-13T10:12:41.494Z,22.35
2023-05-13T10:15:10.758Z,22.38
2023-05-13T10:17:39.288Z,22.42
2023-05-13T10:20:34.223Z,22.45
2023-05-13T10:23:04.101Z,22.52
2023-05-13T10:25:32.490Z,22.61
2023-05-13T10:28:03.897Z,22.67
2023-05-13T10:30:32.568Z,22.78
2023-05-13T10:33:01.400Z,22.83
2023-05-13T10:35:37.529Z,22.88
2023-05-13T10:38:11.333Z,22.90
2023-05-13T10:40:54.282Z,22.93
2023-05-13T10:43:25.635Z,22.87
2023-05-13T10:45:58.240Z,22.81
2023-05-13T10:48:31.299Z,22.84
2023-05-13T10:51:06.572Z,22.91
2023-05-13T10:53:47.242Z,23.00
2023-05-13T10:56:15.978Z,23.06
2023-05-13T10:58:44.229Z,23.09
2023-05-13T11:01:18.339Z,23.14
2023-05-13T11:03:56.395Z,23.16
2023-05-13T11:06:26.947Z,23.21
2023-05-13T11:08:56.522Z,23.25
2023-05-13T11:11:27.430Z,23.23
2023-05-13T11:13:56.711Z,23.25
2023-05-13T11:16:24.990Z,23.21
2023-05-13T11:18:53.468Z,23.14
2023-05-13T11:21:31.339Z,23.14
2023-05-13T11:24:03.895Z,23.15
2023-05-13T11:26:48.434Z,23.14
2023-05-13T11:29:16.718Z,23.15
2023-05-13T11:31:47.159Z,23.12
2023-05-13T11:34:17.369Z,23.14
2023-05-13T11:36:47.368Z,23.14
2023-05-13T11:39:18.162Z,23.15
2023-05-13T11:41:47.471Z,23.20
2023-05-13T11:44:17.318Z,23.26
2023-05-13T11:46:56.700Z,23.24
2023-05-13T11:49:40.381Z,23.24
2023-05-13T11:52:12.840Z,23.17
2023-05-13T11:54:49.538Z,23.15
2023-05-13T11:57:23.403Z,23.16
2023-05-13T11:59:57.462Z,23.17
2023-05-13T12:02:28.410Z,23.25
2023-05-13T12:04:56.609Z,23.28
2023-05-13T12:07:25.750Z,23.35
2023-05-13T12:09:58.513Z,23.35
2023-05-13T12:12:27.750Z,23.26
2023-05-13T12:14:56.656Z,23.23
2023-05-13T12:17:25.453Z,23.27
2023-05-13T12:20:16.268Z,23.39
2023-05-13T12:22:56.663Z,23.46
2023-05-13T12:25:43.590Z,23.45
2023-05-13T12:28:13.604Z,23.48
2023-05-13T12:30:43.071Z,23.52
2023-05-13T12:33:15.117Z,23.62
2023-05-13T12:35:43.309Z,23.73
2023-05-13T12:38:16.164Z,23.80
2023-05-13T12:40:46.295Z,23.85
2023-05-13T12:43:15.540Z,23.96
2023-05-13T12:45:46.427Z,24.04
2023-05-13T12:48:16.335Z,24.08
2023-05-13T12:50:43.871Z,24.08
2023-05-13T12:53:11.759Z,24.06
2023-05-13T12:56:04.253Z,24.10
2023-05-13T12:58:33.599Z,24.23
2023-05-13T13:01:05.155Z,24.34
2023-05-13T13:03:34.313Z,24.39
2023-05-13T13:06:02.027Z,24.44
2023-05-13T13:08:30.719Z,24.42
2023-05-13T13:11:00.317Z,24.24
2023-05-13T13:13:28.276Z,24.14
2023-05-13T13:15:57.382Z,24.10
2023-05-13T13:18:25.882Z,24.16
2023-05-13T13:20:54.346Z,24.30
2023-05-13T13:23:22.326Z,24.36
2023-05-13T13:25:49.911Z,24.46
2023-05-13T13:28:17.662Z,24.50
2023-05-13T13:31:09.824Z,24.36
2023-05-13T13:36:57.273Z,24.19
2023-05-13T13:39:24.859Z,24.30
2023-05-13T13:41:52.803Z,24.31
2023-05-13T13:44:20.535Z,24.36
2023-05-13T13:46:52.227Z,24.45
2023-05-13T13:49:24.119Z,24.56
2023-05-13T13:51:52.396Z,24.63
2023-05-13T13:54:20.349Z,24.73
2023-05-13T13:56:49.364Z,24.85
2023-05-13T13:59:19.089Z,24.93
2023-05-13T14:02:12.327Z,25.04
2023-05-13T14:04:43.373Z,25.12
2023-05-13T14:07:11.200Z,25.19
2023-05-13T14:09:39.268Z,25.21
2023-05-13T14:12:07.090Z,25.11
2023-05-13T14:14:34.664Z,25.08
2023-05-13T14:17:02.361Z,25.07
2023-05-13T14:19:29.970Z,25.08
2023-05-13T14:21:59.358Z,25.05
2023-05-13T14:24:31.055Z,25.09
2023-05-13T14:26:59.167Z,25.10
2023-05-13T14:29:27.366Z,25.04
2023-05-13T14:31:56.469Z,24.94
2023-05-13T14:34:24.346Z,24.83
2023-05-13T14:36:52.101Z,24.62
2023-05-13T14:39:21.838Z,24.66
2023-05-13T14:41:49.436Z,24.86
2023-05-13T14:44:17.376Z,25.07
2023-05-13T14:46:45.057Z,25.23
2023-05-13T14:49:12.795Z,25.33
2023-05-13T14:51:40.358Z,25.39
2023-05-13T14:54:08.015Z,25.47
2023-05-13T14:56:37.798Z,25.47
2023-05-13T14:59:09.261Z,25.29
2023-05-13T15:01:37.678Z,25.04
2023-05-13T15:04:07.710Z,24.82
2023-05-13T15:06:36.232Z,24.70
2023-05-13T15:09:03.894Z,24.57
2023-05-13T15:11:31.469Z,24.42
2023-05-13T15:14:01.340Z,24.20
2023-05-13T15:16:29.068Z,24.06
2023-05-13T15:18:57.399Z,23.94
2023-05-13T15:21:25.865Z,23.89
2023-05-13T15:23:53.706Z,23.90
2023-05-13T15:26:23.251Z,23.89
2023-05-13T15:28:51.781Z,23.90
2023-05-13T15:31:20.821Z,23.91
2023-05-13T15:33:48.455Z,23.97
2023-05-13T15:36:17.653Z,24.03
2023-05-13T15:38:45.395Z,24.08
2023-05-13T15:41:12.968Z,23.99
2023-05-13T15:46:34.678Z,23.79
2023-05-13T15:49:02.581Z,23.77
2023-05-13T15:51:30.316Z,23.75
2023-05-13T15:53:57.923Z,23.74
2023-05-13T15:56:27.293Z,23.67
2023-05-13T15:58:56.390Z,23.57
2023-05-13T16:01:26.344Z,23.48
2023-05-13T16:03:56.417Z,23.28
2023-05-13T16:06:24.269Z,23.08
2023-05-13T16:08:55.626Z,22.98
2023-05-13T16:11:24.884Z,22.87
2023-05-13T16:13:52.902Z,22.78
2023-05-13T16:16:21.084Z,22.70
2023-05-13T16:18:49.307Z,22.59
2023-05-13T16:21:19.613Z,22.45
2023-05-13T16:23:47.179Z,22.37
2023-05-13T16:26:15.310Z,22.28
2023-05-13T16:28:45.389Z,22.23
2023-05-13T16:31:13.130Z,22.16
2023-05-13T16:33:40.834Z,22.09
2023-05-13T16:36:10.913Z,21.99
2023-05-13T16:38:41.284Z,21.93
2023-05-13T16:41:08.896Z,21.85
2023-05-13T16:43:36.595Z,21.80
2023-05-13T16:46:05.045Z,21.73
2023-05-13T16:48:32.698Z,21.64
2023-05-13T16:51:00.261Z,21.56
2023-05-13T16:53:27.936Z,21.48
2023-05-13T16:55:57.011Z,21.41
2023-05-13T16:58:24.884Z,21.32
2023-05-13T17:00:52.969Z,21.25
2023-05-13T17:03:20.733Z,21.18
2023-05-13T17:05:48.811Z,21.09
2023-05-13T17:08:19.166Z,21.04
2023-05-13T17:10:46.809Z,20.97
2023-05-13T17:13:15.854Z,20.91
2023-05-13T17:15:43.517Z,20.86
2023-05-13T17:18:11.446Z,20.84
2023-05-13T17:20:39.555Z,20.80
2023-05-13T17:23:07.573Z,20.78
2023-05-13T17:25:35.420Z,20.73
2023-05-13T17:28:03.144Z,20.70
2023-05-13T17:30:32.268Z,20.68
2023-05-13T17:32:59.927Z,20.67
2023-05-13T17:35:27.831Z,20.64
2023-05-13T17:37:55.384Z,20.60
2023-05-13T17:40:23.556Z,20.59
2023-05-13T17:42:52.830Z,20.52
2023-05-13T17:45:21.014Z,20.50
2023-05-13T17:47:50.256Z,20.48
2023-05-13T17:50:18.247Z,20.47
2023-05-13T17:52:45.984Z,20.46
2023-05-13T17:55:13.559Z,20.45
2023-05-13T17:57:42.422Z,20.43
2023-05-13T18:00:10.951Z,20.41
2023-05-13T18:02:39.930Z,20.38
2023-05-13T18:05:10.127Z,20.37
2023-05-13T18:07:37.924Z,20.35
2023-05-13T18:10:06.841Z,20.31
2023-05-13T18:12:34.503Z,20.26
2023-05-13T18:15:03.547Z,20.23
2023-05-13T18:17:31.080Z,20.18
2023-05-13T18:20:00.351Z,20.13
2023-05-13T18:22:29.433Z,20.10
2023-05-13T18:24:57.078Z,20.05
2023-05-13T18:27:25.533Z,20.02
2023-05-13T18:29:53.308Z,19.99
2023-05-13T18:32:20.932Z,19.94
2023-05-13T18:34:48.674Z,19.90
2023-05-13T18:37:16.794Z,19.84
2023-05-13T18:39:46.091Z,19.80
2023-05-13T18:42:13.716Z,19.75
2023-05-13T18:44:41.351Z,19.71
2023-05-13T18:47:08.988Z,19.66
2023-05-13T18:49:36.775Z,19.60
2023-05-13T18:52:04.827Z,19.55
2023-05-13T18:54:32.630Z,19.49
2023-05-13T18:57:03.160Z,19.43
2023-05-13T18:59:30.913Z,19.38
2023-05-13T19:01:58.972Z,19.30
2023-05-13T19:04:26.949Z,19.23
2023-05-13T19:06:54.766Z,19.16
2023-05-13T19:09:22.591Z,19.10
2023-05-13T19:11:50.303Z,19.03
2023-05-13T19:14:19.227Z,18.94
2023-05-13T19:16:48.342Z,18.85
2023-05-13T19:19:17.474Z,18.78
2023-05-13T19:21:45.203Z,18.68
2023-05-13T19:24:12.818Z,18.58
2023-05-13T19:26:40.692Z,18.50
2023-05-13T19:29:08.459Z,18.40
2023-05-13T19:31:37.456Z,18.31
2023-05-13T19:34:05.236Z,18.21
2023-05-13T19:36:35.299Z,18.12
2023-05-13T19:39:03.424Z,18.02
2023-05-13T19:41:30.998Z,17.94
2023-05-13T19:43:58.640Z,17.83
2023-05-13T19:46:27.463Z,17.75
2023-05-13T19:48:56.555Z,17.65
2023-05-13T19:51:24.426Z,17.55
2023-05-13T19:53:52.309Z,17.46
2023-05-13T19:56:19.965Z,17.33
2023-05-13T19:58:47.509Z,17.25
2023-05-13T20:01:15.750Z,17.14
2023-05-13T20:03:43.518Z,17.03
2023-05-13T20:06:13.320Z,16.91
2023-05-13T20:08:41.204Z,16.82
2023-05-13T20:11:08.976Z,16.73
2023-05-13T20:13:36.649Z,16.61
2023-05-13T20:16:04.810Z,16.50
2023-05-13T20:18:32.510Z,16.39
2023-05-13T20:21:00.421Z,16.28
2023-05-13T20:23:29.393Z,16.17
2023-05-13T20:25:58.152Z,16.08
2023-05-13T20:28:25.797Z,15.98
2023-05-13T20:30:53.779Z,15.90
2023-05-13T20:33:21.860Z,15.82
2023-05-13T20:35:49.418Z,15.72
2023-05-13T20:38:17.913Z,15.65
2023-05-13T20:40:47.376Z,15.56
2023-05-13T20:43:16.627Z,15.48
2023-05-13T20:45:44.402Z,15.41
2023-05-13T20:48:13.438Z,15.32
2023-05-13T20:50:41.833Z,15.27
2023-05-13T20:53:11.342Z,15.19
2023-05-13T20:55:39.127Z,15.13
2023-05-13T20:58:08.171Z,15.07
2023-05-13T21:00:35.783Z,14.99
2023-05-13T21:03:03.939Z,14.92
2023-05-13T21:05:31.636Z,14.85
2023-05-13T21:07:59.397Z,14.77
2023-05-13T21:10:27.001Z,14.69
2023-05-13T21:12:55.325Z,14.60
2023-05-13T21:15:25.183Z,14.51
2023-05-13T21:17:53.138Z,14.43
2023-05-13T21:20:22.234Z,14.35
2023-05-13T21:22:49.981Z,14.29
2023-05-13T21:25:21.319Z,14.23
2023-05-13T21:27:49.433Z,14.16
2023-05-13T21:30:17.996Z,14.10
2023-05-13T21:32:46.948Z,14.02
2023-05-13T21:35:14.729Z,13.96
2023-05-13T21:37:42.364Z,13.91
2023-05-13T21:40:12.498Z,13.85
2023-05-13T21:42:40.082Z,13.79
2023-05-13T21:45:10.558Z,13.72
2023-05-13T21:47:38.468Z,13.67
2023-05-13T21:50:11.437Z,13.61
2023-05-13T21:52:39.612Z,13.56
2023-05-13T21:55:08.257Z,13.51
2023-05-13T21:57:35.964Z,13.47
2023-05-13T22:00:04.620Z,13.40
2023-05-13T22:02:32.494Z,13.33
2023-05-13T22:05:00.062Z,13.27
2023-05-13T22:07:29.088Z,13.22
2023-05-13T22:09:57.447Z,13.18
2023-05-13T22:12:28.510Z,13.12
2023-05-13T22:14:57.312Z,13.08
2023-05-13T22:17:25.317Z,13.04
2023-05-13T22:19:53.774Z,13.01
2023-05-13T22:22:21.351Z,12.96
2023-05-13T22:24:50.438Z,12.91
2023-05-13T22:27:18.751Z,12.86
2023-05-13T22:29:46.357Z,12.82
2023-05-13T22:32:14.022Z,12.77
2023-05-13T22:34:41.992Z,12.73
2023-05-13T22:37:10.553Z,12.70
2023-05-13T22:39:38.343Z,12.65
2023-05-13T22:42:07.973Z,12.61
2023-05-13T22:44:36.799Z,12.56
2023-05-13T22:47:06.252Z,12.52
2023-05-13T22:49:33.820Z,12.49
2023-05-13T22:52:01.900Z,12.45
2023-05-13T22:54:30.970Z,12.41
2023-05-13T22:56:59.149Z,12.40
2023-05-13T22:59:28.421Z,12.39
2023-05-13T23:01:58.311Z,12.37
2023-05-13T23:04:26.373Z,12.35
2023-05-13T23:06:54.433Z,12.31
2023-05-13T23:09:21.972Z,12.27
2023-05-13T23:11:49.801Z,12.25
2023-05-13T23:14:17.357Z,12.21
2023-05-13T23:16:46.469Z,12.18
2023-05-13T23:19:14.115Z,12.16
2023-05-13T23:21:42.317Z,12.13
2023-05-13T23:24:09.908Z,12.10
2023-05-13T23:26:37.527Z,12.08
2023-05-13T23:29:05.442Z,12.06
2023-05-13T23:31:33.587Z,12.03
2023-05-13T23:34:02.660Z,12.00
2023-05-13T23:36:30.984Z,11.99
2023-05-13T23:38:58.583Z,11.96
2023-05-13T23:41:26.240Z,11.95
2023-05-13T23:43:54.745Z,11.92
2023-05-13T23:46:22.487Z,11.89
2023-05-13T23:48:51.349Z,11.86
2023-05-13T23:51:20.739Z,11.83
2023-05-13T23:53:53.490Z,11.81
2023-05-13T23:56:21.342Z,11.78
2023-05-13T23:58:48.945Z,11.77
